Time;durP1;ratioP1;P1;durP2;ratioP2;P2;SDS_P1;SDS_P2;PMS_P1;PMS_P2;Temp;Humidity;BMP_temperature;BMP_pressure;BME280_temperature;BME280_humidity;BME280_pressure;Samples;Min_cycle;Max_cycle;Signal;HPM_P1;HPM_P2
2022/07/04 00:01:43;;;;;;;9.80;7.43;;;;;;;19.03;100.00;93374.78;4999500;28;20046;-78
2022/07/04 00:04:10;;;;;;;11.20;7.43;;;;;;;19.03;100.00;93372.16;5006082;28;20465;-78
2022/07/04 00:06:37;;;;;;;10.57;7.57;;;;;;;18.95;100.00;93365.66;5006753;28;20054;-78
2022/07/04 00:09:05;;;;;;;10.85;7.95;;;;;;;18.92;100.00;93379.16;5001348;28;20054;-78
2022/07/04 00:11:32;;;;;;;10.85;7.32;;;;;;;18.83;100.00;93360.66;4999758;28;20096;-78
2022/07/04 00:13:59;;;;;;;8.35;7.30;;;;;;;18.91;100.00;93375.00;5002240;28;20093;-78
2022/07/04 00:16:26;;;;;;;9.43;8.00;;;;;;;18.89;100.00;93366.69;4999978;28;20050;-78
2022/07/04 00:18:53;;;;;;;9.95;7.97;;;;;;;18.96;100.00;93378.41;5001500;28;20050;-78
2022/07/04 00:21:19;;;;;;;11.10;7.07;;;;;;;18.98;100.00;93377.38;5002695;28;20100;-78
2022/07/04 00:23:46;;;;;;;9.43;7.93;;;;;;;19.01;100.00;93377.63;5010158;28;20045;-78
2022/07/04 00:26:14;;;;;;;9.95;7.40;;;;;;;18.97;100.00;93381.78;5010026;28;20046;-77
2022/07/04 00:28:41;;;;;;;11.30;6.80;;;;;;;18.94;100.00;93379.72;5010404;28;20042;-77
2022/07/04 00:31:08;;;;;;;10.07;7.80;;;;;;;18.81;100.00;93366.16;5010521;28;20046;-78
2022/07/04 00:33:34;;;;;;;9.48;7.57;;;;;;;18.78;100.00;93360.66;5010090;28;20046;-77
2022/07/04 00:36:01;;;;;;;11.60;8.00;;;;;;;18.71;100.00;93363.53;5009616;28;20068;-77
2022/07/04 00:38:28;;;;;;;9.57;7.43;;;;;;;18.74;100.00;93373.41;5009579;28;20041;-77
2022/07/04 00:40:55;;;;;;;8.93;8.00;;;;;;;18.74;100.00;93365.59;5009599;28;20045;-78
2022/07/04 00:43:25;;;;;;;10.52;7.72;;;;;;;18.66;100.00;93351.25;5009600;28;20041;-78
2022/07/04 00:45:51;;;;;;;10.93;7.57;;;;;;;18.75;100.00;93374.19;5009451;28;20057;-78
2022/07/04 00:48:19;;;;;;;10.95;7.93;;;;;;;18.75;100.00;93371.59;5009352;28;20041;-78
2022/07/04 00:50:47;;;;;;;12.88;7.18;;;;;;;18.64;100.00;93357.75;5009652;28;20038;-79
2022/07/04 00:53:14;;;;;;;12.02;8.30;;;;;;;18.62;100.00;93355.44;5009745;28;20042;-80
2022/07/04 00:55:41;;;;;;;9.48;7.63;;;;;;;18.69;100.00;93374.19;5009556;28;20122;-81
2022/07/04 00:58:09;;;;;;;9.00;7.45;;;;;;;18.70;100.00;93375.75;5009692;28;20058;-77
2022/07/04 01:00:37;;;;;;;10.73;7.50;;;;;;;18.66;100.00;93374.69;5009288;28;20042;-77
2022/07/04 01:03:04;;;;;;;11.65;7.60;;;;;;;18.48;100.00;93355.13;5009332;28;20057;-77
2022/07/04 01:05:31;;;;;;;9.52;7.50;;;;;;;18.50;100.00;93371.25;5009367;28;20115;-76
2022/07/04 01:07:59;;;;;;;11.68;7.32;;;;;;;18.47;100.00;93369.16;5009578;28;21634;-77
2022/07/04 01:10:26;;;;;;;10.40;7.20;;;;;;;18.40;100.00;93363.41;5009450;28;20405;-76
2022/07/04 01:12:54;;;;;;;10.32;7.50;;;;;;;18.32;100.00;93361.31;5009179;28;20482;-77
2022/07/04 01:15:20;;;;;;;10.85;8.30;;;;;;;18.34;100.00;93372.22;5008908;28;20042;-77
2022/07/04 01:17:50;;;;;;;12.48;8.18;;;;;;;18.33;100.00;93365.47;5009079;28;20046;-77
2022/07/04 01:20:19;;;;;;;8.40;7.32;;;;;;;18.29;100.00;93367.81;5009293;28;20048;-77
2022/07/04 01:22:45;;;;;;;14.63;7.97;;;;;;;18.33;100.00;93362.88;5008893;28;20494;-77
2022/07/04 01:25:14;;;;;;;9.77;7.80;;;;;;;18.23;100.00;93348.78;5008912;28;20041;-76
2022/07/04 01:27:41;;;;;;;12.07;8.23;;;;;;;18.21;100.00;93363.06;5008669;28;20524;-77
2022/07/04 01:30:08;;;;;;;14.27;8.07;;;;;;;18.20;100.00;93359.72;5008887;28;20092;-76
2022/07/04 01:32:35;;;;;;;12.30;8.75;;;;;;;18.10;100.00;93357.81;5009341;28;20093;-76
2022/07/04 01:35:02;;;;;;;9.60;7.30;;;;;;;18.05;100.00;93360.34;5008987;28;20054;-77
2022/07/04 01:37:30;;;;;;;9.52;7.80;;;;;;;18.03;100.00;93358.03;5009217;28;21592;-77
2022/07/04 01:39:57;;;;;;;10.30;8.55;;;;;;;17.98;100.00;93357.22;5009066;28;20100;-77
2022/07/04 01:42:24;;;;;;;12.35;8.27;;;;;;;17.96;100.00;93365.25;5009001;28;20104;-76
2022/07/04 01:44:50;;;;;;;10.65;8.40;;;;;;;17.90;100.00;93363.66;5008866;28;20042;-77
2022/07/04 01:47:17;;;;;;;10.30;7.97;;;;;;;17.89;100.00;93369.91;5008960;28;20045;-80
2022/07/04 01:49:44;;;;;;;9.55;8.13;;;;;;;17.75;100.00;93351.38;5009175;28;20046;-80
2022/07/04 01:52:11;;;;;;;14.10;8.25;;;;;;;17.82;100.00;93369.34;5009215;28;20111;-80
2022/07/04 01:54:39;;;;;;;10.52;8.00;;;;;;;17.78;100.00;93366.47;5008971;28;20520;-75
2022/07/04 01:57:07;;;;;;;16.45;8.50;;;;;;;17.79;100.00;93364.63;5009081;28;20049;-79
2022/07/04 02:02:18;;;;;;;12.13;8.52;;;;;;;17.78;100.00;93363.88;5008699;28;20057;-77
2022/07/04 02:04:45;;;;;;;11.90;8.10;;;;;;;17.77;100.00;93364.88;5008728;28;20495;-78
2022/07/04 02:07:11;;;;;;;11.15;8.00;;;;;;;17.79;100.00;93370.63;5008044;28;20414;-79
2022/07/04 02:09:39;;;;;;;13.60;8.57;;;;;;;17.74;100.00;93366.16;5001792;28;20144;-78
2022/07/04 02:14:51;;;;;;;11.57;8.15;;;;;;;17.67;100.00;93375.22;5012876;28;20056;-79
2022/07/04 02:17:18;;;;;;;12.88;8.40;;;;;;;17.62;100.00;93381.94;5012832;28;20634;-78
2022/07/04 02:19:45;;;;;;;10.75;8.05;;;;;;;17.54;100.00;93377.19;5012683;28;20050;-79
2022/07/04 02:22:12;;;;;;;10.55;8.27;;;;;;;17.39;100.00;93361.53;5012764;28;20115;-80
2022/07/04 02:24:40;;;;;;;10.75;8.93;;;;;;;17.63;100.00;93382.72;5012906;28;20046;-79
2022/07/04 02:27:07;;;;;;;10.15;8.27;;;;;;;17.68;100.00;93379.38;5012787;28;20103;-80
2022/07/04 02:29:34;;;;;;;9.75;8.25;;;;;;;17.68;100.00;93369.75;5012745;28;20053;-80
2022/07/04 02:32:01;;;;;;;11.38;8.55;;;;;;;17.71;100.00;93373.69;5012819;28;20049;-80
2022/07/04 02:34:28;;;;;;;16.88;9.00;;;;;;;17.73;100.00;93380.19;5013043;28;20049;-80
2022/07/04 02:36:54;;;;;;;11.13;8.18;;;;;;;17.71;100.00;93379.66;5012639;28;20065;-81
2022/07/04 02:39:21;;;;;;;10.75;7.78;;;;;;;17.71;100.00;93384.06;5012637;28;20042;-81
2022/07/04 02:41:49;;;;;;;12.15;8.75;;;;;;;17.63;100.00;93367.94;5012542;28;20041;-81
2022/07/04 02:44:16;;;;;;;13.52;8.45;;;;;;;17.38;100.00;93350.34;5013052;28;20430;-81
2022/07/04 02:46:43;;;;;;;11.73;8.77;;;;;;;17.50;100.00;93373.56;5012203;28;20473;-81
2022/07/04 02:49:10;;;;;;;10.50;8.13;;;;;;;17.54;100.00;93384.22;5012556;28;20458;-81
2022/07/04 02:51:37;;;;;;;10.82;9.02;;;;;;;17.58;100.00;93382.69;5012668;28;20723;-81
2022/07/04 02:54:04;;;;;;;13.48;9.00;;;;;;;17.51;100.00;93390.69;5012523;28;20049;-80
2022/07/04 02:56:31;;;;;;;11.30;8.73;;;;;;;17.47;100.00;93393.00;5012346;28;20561;-80
2022/07/04 02:58:59;;;;;;;12.27;8.75;;;;;;;17.50;100.00;93399.53;5012396;28;20049;-80
2022/07/04 03:01:26;;;;;;;12.38;8.70;;;;;;;17.48;100.00;93399.78;5012398;28;20096;-80
2022/07/04 03:03:52;;;;;;;11.75;9.45;;;;;;;17.46;100.00;93393.25;5011961;28;20498;-80
2022/07/04 03:06:19;;;;;;;14.75;9.70;;;;;;;17.56;100.00;93400.34;4998586;28;20051;-80
2022/07/04 03:08:46;;;;;;;16.98;9.63;;;;;;;17.57;100.00;93399.31;5012250;28;20117;-80
2022/07/04 03:11:13;;;;;;;12.05;8.98;;;;;;;17.56;100.00;93408.13;5012657;28;20445;-81
2022/07/04 03:13:41;;;;;;;18.20;8.93;;;;;;;17.58;100.00;93409.44;5011973;28;20502;-81
2022/07/04 03:16:10;;;;;;;17.58;9.55;;;;;;;17.58;100.00;93413.84;5012319;28;20453;-81
2022/07/04 03:18:37;;;;;;;18.65;9.27;;;;;;;17.58;100.00;93411.25;5011865;28;20092;-81
2022/07/04 03:21:04;;;;;;;12.50;8.98;;;;;;;17.54;100.00;93407.59;5012100;28;20042;-81
2022/07/04 03:23:31;;;;;;;16.23;9.65;;;;;;;17.55;100.00;93406.56;5012082;28;20041;-81
2022/07/04 03:25:58;;;;;;;14.30;9.30;;;;;;;17.40;100.00;93391.66;5012311;28;20453;-81
2022/07/04 03:28:25;;;;;;;13.23;8.93;;;;;;;17.45;100.00;93410.63;5012487;28;20050;-82
2022/07/04 03:30:52;;;;;;;18.15;10.23;;;;;;;17.36;100.00;93399.16;5011458;28;20050;-81
2022/07/04 03:33:21;;;;;;;13.40;8.63;;;;;;;17.41;100.00;93403.59;5011953;28;20404;-82
2022/07/04 03:35:47;;;;;;;13.82;9.05;;;;;;;17.52;100.00;93412.25;5011564;28;20049;-82
2022/07/04 03:38:14;;;;;;;13.60;8.52;;;;;;;17.52;100.00;93415.63;5011429;28;20548;-81
2022/07/04 03:40:41;;;;;;;14.30;8.35;;;;;;;17.39;100.00;93390.84;5011141;28;20371;-82
2022/07/04 03:43:08;;;;;;;14.18;8.85;;;;;;;17.56;100.00;93413.31;5011707;28;20050;-82
2022/07/04 03:45:35;;;;;;;18.45;10.25;;;;;;;17.54;100.00;93408.38;5011702;28;20391;-81
2022/07/04 03:48:03;;;;;;;16.83;9.20;;;;;;;17.60;100.00;93415.16;5011821;28;20096;-80
2022/07/04 03:50:31;;;;;;;11.57;8.55;;;;;;;17.40;100.00;93378.66;5011713;28;20046;-80
2022/07/04 03:52:58;;;;;;;14.90;9.38;;;;;;;17.62;100.00;93415.72;5011530;28;20111;-79
2022/07/04 03:55:24;;;;;;;13.98;9.60;;;;;;;17.55;100.00;93390.97;5011816;28;20049;-81
2022/07/04 03:57:51;;;;;;;14.45;9.93;;;;;;;17.60;100.00;93399.59;5011061;28;20046;-79
2022/07/04 04:00:18;;;;;;;14.80;9.98;;;;;;;17.67;100.00;93396.00;5011206;28;20050;-79
2022/07/04 04:02:45;;;;;;;12.73;9.32;;;;;;;17.76;100.00;93408.28;5011422;28;20174;-79
2022/07/04 04:05:30;;;;;;;15.30;9.10;;;;;;;17.77;100.00;93409.84;5006229;28;20533;-79
2022/07/04 04:08:00;;;;;;;17.55;10.00;;;;;;;17.84;100.00;93404.44;5005588;28;20520;-79
2022/07/04 04:10:28;;;;;;;13.57;9.63;;;;;;;17.88;100.00;93408.09;5010935;28;20096;-79
2022/07/04 04:12:55;;;;;;;15.43;10.38;;;;;;;17.92;100.00;93410.19;5011217;28;20050;-79
2022/07/04 04:15:22;;;;;;;13.95;9.15;;;;;;;17.99;100.00;93411.53;5010807;28;20046;-79
2022/07/04 04:17:49;;;;;;;13.23;9.40;;;;;;;17.99;100.00;93406.34;5011065;28;20072;-80
2022/07/04 04:20:16;;;;;;;13.32;9.52;;;;;;;18.09;100.00;93415.28;5010939;28;20046;-80
2022/07/04 04:22:42;;;;;;;17.77;10.10;;;;;;;18.10;100.00;93414.25;5010870;28;20068;-80
2022/07/04 04:25:11;;;;;;;19.23;9.90;;;;;;;18.16;100.00;93411.41;5010960;28;20050;-80
2022/07/04 04:27:38;;;;;;;17.60;10.60;;;;;;;18.22;100.00;93409.63;5011031;28;20092;-79
2022/07/04 04:30:05;;;;;;;17.55;10.40;;;;;;;18.28;100.00;93411.22;5010492;28;20061;-78
2022/07/04 04:32:32;;;;;;;14.80;9.75;;;;;;;18.30;100.00;93403.94;5011134;28;20041;-80
2022/07/04 04:34:59;;;;;;;22.70;10.80;;;;;;;18.30;100.00;93390.94;5010678;28;20053;-79
2022/07/04 04:37:26;;;;;;;18.23;11.77;;;;;;;18.49;100.00;93402.72;5010349;28;20401;-78
2022/07/04 04:39:53;;;;;;;13.23;10.25;;;;;;;18.65;100.00;93404.34;5010487;28;20092;-77
2022/07/04 04:42:21;;;;;;;16.10;11.15;;;;;;;18.77;100.00;93409.34;5010006;28;20096;-77
2022/07/04 04:44:48;;;;;;;16.20;11.32;;;;;;;18.68;100.00;93405.66;5010640;28;20076;-78
2022/07/04 04:47:15;;;;;;;15.35;11.00;;;;;;;18.60;100.00;93419.16;5010649;28;20129;-78
2022/07/04 04:49:42;;;;;;;17.52;10.77;;;;;;;18.68;100.00;93416.06;5010208;28;20093;-78
2022/07/04 04:52:09;;;;;;;18.23;11.45;;;;;;;18.69;100.00;93413.22;5010264;28;20050;-77
2022/07/04 04:54:36;;;;;;;16.98;11.15;;;;;;;18.51;100.00;93417.03;5010565;28;20053;-78
2022/07/04 04:57:03;;;;;;;16.80;10.43;;;;;;;18.47;100.00;93408.16;5010309;28;20042;-80
2022/07/04 04:59:31;;;;;;;13.55;9.95;;;;;;;18.49;100.00;93407.91;4996796;28;20045;-79
2022/07/04 05:01:59;;;;;;;12.70;9.60;;;;;;;18.49;100.00;93410.53;5010106;28;20046;-79
2022/07/04 05:04:26;;;;;;;13.88;9.25;;;;;;;18.43;100.00;93417.53;5010030;28;20112;-78
2022/07/04 05:06:53;;;;;;;12.32;8.93;;;;;;;18.51;100.00;93401.44;4996438;28;20046;-78
2022/07/04 05:09:20;;;;;;;11.70;7.95;;;;;;;18.62;100.00;93406.66;5009930;28;20056;-78
2022/07/04 05:11:47;;;;;;;10.90;8.27;;;;;;;18.68;100.00;93390.03;5010243;28;20414;-79
2022/07/04 05:14:14;;;;;;;10.73;8.18;;;;;;;18.96;100.00;93401.03;5010524;28;20129;-79
2022/07/04 05:16:42;;;;;;;12.70;7.63;;;;;;;19.26;100.00;93419.63;5010104;28;20104;-79
2022/07/04 05:19:09;;;;;;;12.15;8.27;;;;;;;19.43;100.00;93409.72;5010121;28;20108;-78
2022/07/04 05:21:35;;;;;;;15.75;8.43;;;;;;;19.69;100.00;93414.16;5010155;28;20046;-79
2022/07/04 05:24:02;;;;;;;10.68;7.78;;;;;;;19.84;100.00;93413.38;5009765;28;20104;-79
2022/07/04 05:26:29;;;;;;;11.60;8.15;;;;;;;20.02;100.00;93417.28;5009991;28;20499;-79
2022/07/04 05:28:57;;;;;;;14.68;9.60;;;;;;;20.23;100.00;93414.66;5010140;28;20050;-78
2022/07/04 05:31:24;;;;;;;15.57;9.25;;;;;;;20.34;100.00;93403.13;5009826;28;20141;-78
2022/07/04 05:33:54;;;;;;;15.45;9.18;;;;;;;20.65;100.00;93410.06;5009801;28;20046;-79
2022/07/04 05:36:21;;;;;;;18.88;10.18;;;;;;;20.62;100.00;93408.78;5009863;28;20092;-78
2022/07/04 05:38:47;;;;;;;14.85;9.90;;;;;;;20.81;98.71;93416.00;5009715;28;20046;-78
2022/07/04 05:41:14;;;;;;;18.63;10.27;;;;;;;20.96;99.16;93415.16;5009946;28;20049;-79
2022/07/04 05:43:41;;;;;;;15.45;10.02;;;;;;;21.03;98.44;93417.47;5009585;28;20419;-79
2022/07/04 05:46:08;;;;;;;14.57;8.63;;;;;;;21.25;95.79;93416.31;5009605;28;20056;-78
2022/07/04 05:48:35;;;;;;;15.55;8.57;;;;;;;21.51;94.11;93416.91;5011862;28;20101;-79
2022/07/04 05:51:04;;;;;;;13.18;8.00;;;;;;;21.58;90.33;93411.38;5013271;28;20442;-79
2022/07/04 05:53:30;;;;;;;14.52;8.27;;;;;;;21.87;91.38;93408.81;5013501;28;20042;-78
2022/07/04 05:55:57;;;;;;;12.48;7.68;;;;;;;22.21;89.84;93412.41;5013738;28;20100;-82
2022/07/04 05:58:24;;;;;;;10.60;6.93;;;;;;;22.06;85.84;93399.47;5013308;28;20050;-82
2022/07/04 06:00:51;;;;;;;10.07;7.13;;;;;;;22.28;84.63;93412.84;5013271;28;20499;-82
2022/07/04 06:03:17;;;;;;;12.70;7.40;;;;;;;22.48;85.21;93410.28;5013254;28;20442;-82
2022/07/04 06:05:53;;;;;;;10.52;6.75;;;;;;;22.41;83.61;93381.84;5004104;28;20506;-82
2022/07/04 06:08:21;;;;;;;11.00;7.85;;;;;;;22.79;81.61;93402.88;5009860;28;20041;-78
2022/07/04 06:10:48;;;;;;;9.68;6.75;;;;;;;22.88;81.06;93400.41;5013412;28;20045;-77
2022/07/04 06:13:15;;;;;;;17.67;8.70;;;;;;;23.14;83.72;93405.28;5013102;28;20108;-78
2022/07/04 06:15:42;;;;;;;12.90;7.93;;;;;;;23.53;81.66;93400.84;5012910;28;20391;-78
2022/07/04 06:18:09;;;;;;;17.05;7.85;;;;;;;23.79;79.31;93397.78;5012947;28;20046;-78
2022/07/04 06:20:36;;;;;;;13.57;8.85;;;;;;;24.15;77.07;93394.59;5012982;28;20108;-78
2022/07/04 06:23:03;;;;;;;12.88;8.30;;;;;;;24.54;76.96;93402.28;5004822;28;20046;-78
2022/07/04 06:25:31;;;;;;;16.35;8.45;;;;;;;24.46;75.74;93400.31;5000787;28;20041;-79
2022/07/04 06:27:58;;;;;;;15.75;9.13;;;;;;;24.12;76.74;93391.78;5011274;28;20046;-79
2022/07/04 06:30:25;;;;;;;17.30;8.57;;;;;;;24.41;76.18;93369.69;5012316;28;20054;-78
2022/07/04 06:32:54;;;;;;;16.30;8.40;;;;;;;24.59;74.73;93401.38;5012291;28;20437;-78
2022/07/04 06:38:08;;;;;;;14.40;7.88;;;;;;;25.35;72.00;93405.34;5012177;28;20058;-78
2022/07/04 06:40:37;;;;;;;19.35;9.32;;;;;;;25.82;70.59;93406.94;5012521;28;20096;-78
2022/07/04 06:43:04;;;;;;;14.23;8.75;;;;;;;25.86;70.04;93392.84;5012016;28;20050;-79
2022/07/04 06:45:32;;;;;;;19.88;9.13;;;;;;;26.33;66.34;93401.47;5012457;28;20069;-78
2022/07/04 06:47:59;;;;;;;19.58;10.73;;;;;;;26.67;66.03;93398.13;5012519;28;20164;-78
2022/07/04 06:50:25;;;;;;;22.33;11.80;;;;;;;26.93;65.62;93394.81;5012051;28;20073;-78
2022/07/04 06:52:52;;;;;;;20.20;11.52;;;;;;;26.89;62.90;93398.34;5012061;28;20046;-78
2022/07/04 06:55:19;;;;;;;23.17;10.73;;;;;;;26.95;63.69;93402.41;5011724;28;20096;-78
2022/07/04 06:57:47;;;;;;;18.83;9.65;;;;;;;27.27;62.48;93392.50;5011794;28;20552;-79
2022/07/04 07:00:14;;;;;;;19.40;9.93;;;;;;;26.98;63.44;93388.59;5011298;28;20466;-78
2022/07/04 07:02:41;;;;;;;26.35;10.52;;;;;;;26.71;63.60;93387.00;5011521;28;20540;-78
2022/07/04 07:05:08;;;;;;;22.58;10.73;;;;;;;27.33;62.08;93386.00;5007049;28;20081;-78
2022/07/04 07:07:35;;;;;;;22.10;9.75;;;;;;;27.52;59.33;93378.81;5002791;28;20494;-80
2022/07/04 07:10:03;;;;;;;21.08;10.98;;;;;;;28.01;60.12;93376.72;5011768;28;20050;-79
2022/07/04 07:12:31;;;;;;;23.65;9.05;;;;;;;27.16;61.90;93368.31;5011810;28;20068;-79
2022/07/04 07:14:59;;;;;;;17.90;9.00;;;;;;;27.88;59.29;93386.41;5011768;28;20041;-79
2022/07/04 07:17:26;;;;;;;20.45;9.25;;;;;;;27.93;58.02;93374.88;5011795;28;20049;-79
2022/07/04 07:19:53;;;;;;;20.80;10.52;;;;;;;28.34;56.85;93383.31;5011601;28;20073;-79
2022/07/04 07:22:20;;;;;;;20.50;10.05;;;;;;;28.38;55.91;93380.81;5011668;28;20045;-80
2022/07/04 07:24:47;;;;;;;22.55;11.60;;;;;;;28.92;56.12;93376.78;5011697;28;20130;-80
2022/07/04 07:27:13;;;;;;;21.05;10.25;;;;;;;28.70;54.03;93373.34;5011214;28;20565;-79
2022/07/04 07:29:40;;;;;;;18.40;9.13;;;;;;;28.37;54.14;93374.72;5011410;28;20054;-78
2022/07/04 07:32:09;;;;;;;14.90;7.85;;;;;;;28.50;53.06;93369.53;5011220;28;20065;-79
2022/07/04 07:34:36;;;;;;;19.20;8.40;;;;;;;28.81;54.20;93371.06;5011673;28;20045;-79
2022/07/04 07:37:03;;;;;;;13.77;7.57;;;;;;;28.58;55.24;93373.22;5011102;28;20050;-79
2022/07/04 07:39:30;;;;;;;12.98;6.88;;;;;;;28.90;52.77;93368.41;5011375;28;20046;-80
2022/07/04 07:41:57;;;;;;;18.25;9.05;;;;;;;29.05;53.02;93359.91;5011372;28;20450;-78
2022/07/04 07:44:23;;;;;;;13.75;7.10;;;;;;;29.69;52.07;93369.63;4997385;28;20446;-80
2022/07/04 07:46:50;;;;;;;12.38;6.82;;;;;;;30.07;51.47;93370.47;5011153;28;20453;-80
2022/07/04 07:49:19;;;;;;;19.00;8.35;;;;;;;30.43;49.72;93371.63;5010748;28;20050;-80
2022/07/04 07:51:45;;;;;;;16.20;8.20;;;;;;;30.79;50.97;93367.41;5011165;28;20057;-80
2022/07/04 07:54:13;;;;;;;12.63;7.60;;;;;;;31.22;49.26;93366.31;5010987;28;20096;-79
2022/07/04 07:56:40;;;;;;;14.00;6.75;;;;;;;31.48;47.55;93349.22;5010639;28;20053;-81
2022/07/04 07:59:06;;;;;;;9.68;5.68;;;;;;;31.53;46.68;93357.72;5010568;28;20053;-80
2022/07/04 08:01:33;;;;;;;13.32;6.53;;;;;;;31.66;46.92;93355.00;5010703;28;20092;-79
2022/07/04 08:06:46;;;;;;;8.57;5.50;;;;;;;30.83;48.39;93356.94;5010655;28;20508;-79
2022/07/04 08:09:14;;;;;;;9.93;5.65;;;;;;;30.84;47.39;93358.47;5010500;28;20298;-79
2022/07/04 08:11:42;;;;;;;11.23;6.10;;;;;;;29.81;49.96;93361.72;4995810;28;20141;-80
2022/07/04 08:14:09;;;;;;;10.75;6.10;;;;;;;30.38;50.07;93355.94;5010522;28;20050;-79
2022/07/04 08:16:36;;;;;;;11.52;6.07;;;;;;;30.52;48.38;93358.25;4995004;28;20049;-79
2022/07/04 08:19:03;;;;;;;14.32;5.95;;;;;;;30.51;48.66;93356.72;5001161;28;20053;-79
2022/07/04 08:21:30;;;;;;;9.85;6.82;;;;;;;29.01;51.47;93352.94;5010260;28;20091;-79
2022/07/04 08:23:59;;;;;;;10.30;6.43;;;;;;;28.78;52.82;93351.34;5010531;28;20049;-78
2022/07/04 08:26:25;;;;;;;14.02;7.55;;;;;;;29.76;51.39;93345.28;5010060;28;20453;-80
2022/07/04 08:28:52;;;;;;;11.10;6.57;;;;;;;29.77;51.42;93342.31;5010206;28;20100;-79
2022/07/04 08:31:19;;;;;;;13.25;6.00;;;;;;;29.96;50.12;93349.75;5010129;28;20612;-79
2022/07/04 08:33:47;;;;;;;10.82;5.82;;;;;;;29.41;51.00;93355.09;4996791;28;20045;-80
2022/07/04 08:36:14;;;;;;;12.10;6.35;;;;;;;30.22;50.29;93345.25;5010224;28;20053;-79
2022/07/04 08:38:41;;;;;;;12.30;5.57;;;;;;;28.67;53.74;93347.53;5009303;28;20050;-81
2022/07/04 08:41:09;;;;;;;8.82;5.43;;;;;;;29.70;53.69;93348.13;5009952;28;20437;-80
2022/07/04 08:43:37;;;;;;;11.00;6.00;;;;;;;30.53;52.82;93343.91;5009482;28;20041;-80
2022/07/04 08:46:05;;;;;;;8.90;4.47;;;;;;;30.72;48.17;93346.00;5009817;28;20045;-80
2022/07/04 08:48:33;;;;;;;10.90;4.30;;;;;;;30.11;48.36;93324.50;5010032;28;20486;-80
2022/07/04 08:51:10;;;;;;;5.60;3.55;;;;;;;30.74;46.22;93354.41;5009825;28;20477;-81
2022/07/04 08:53:40;;;;;;;7.25;3.97;;;;;;;31.19;47.78;93351.88;5007627;28;20049;-81
2022/07/04 08:58:57;;;;;;;5.60;3.17;;;;;;;31.45;45.81;93348.00;5009684;28;20530;-82
2022/07/04 09:01:25;;;;;;;5.03;3.67;;;;;;;31.81;44.90;93351.59;5009864;28;20042;-82
2022/07/04 09:03:52;;;;;;;10.40;4.47;;;;;;;31.49;45.39;93356.06;5010026;28;20096;-81
2022/07/04 09:06:19;;;;;;;8.40;3.63;;;;;;;31.16;43.93;93361.28;4995900;28;20407;-82
2022/07/04 09:08:46;;;;;;;9.20;3.75;;;;;;;31.13;45.85;93355.84;5009746;28;20092;-80
2022/07/04 09:11:14;;;;;;;6.43;3.95;;;;;;;30.75;46.24;93357.81;5009512;28;20042;-80
2022/07/04 09:13:40;;;;;;;9.88;3.80;;;;;;;31.42;46.37;93348.72;5009160;28;20410;-81
2022/07/04 09:16:07;;;;;;;6.07;4.15;;;;;;;31.13;44.29;93351.31;5009524;28;20497;-81
2022/07/04 09:18:36;;;;;;;7.63;4.15;;;;;;;31.54;45.51;93340.69;5009376;28;20502;-81
2022/07/04 09:21:05;;;;;;;6.72;3.63;;;;;;;31.46;44.15;93329.09;5008882;28;20453;-82
2022/07/04 09:23:33;;;;;;;7.18;3.75;;;;;;;31.86;45.14;93338.09;5009319;28;20418;-83
2022/07/04 09:26:16;;;;;;;5.72;3.88;;;;;;;31.50;44.19;93329.19;5009068;28;20479;-80
2022/07/04 09:28:46;;;;;;;5.22;3.40;;;;;;;31.98;45.69;93318.63;5006740;28;20494;-82
2022/07/04 09:31:17;;;;;;;5.57;4.15;;;;;;;32.23;43.44;93315.00;4998224;28;20054;-82
2022/07/04 09:33:51;;;;;;;5.45;3.47;;;;;;;32.17;43.94;93329.69;5009506;28;20099;-82
2022/07/04 09:36:19;;;;;;;8.38;4.90;;;;;;;31.71;44.95;93304.31;5009450;28;20141;-80
2022/07/04 09:38:46;;;;;;;8.98;4.53;;;;;;;31.88;44.99;93319.13;5008109;28;20502;-84
2022/07/04 09:41:29;;;;;;;5.78;4.05;;;;;;;31.15;44.29;93329.75;5009474;28;20501;-82
2022/07/04 09:44:01;;;;;;;6.85;4.95;;;;;;;30.75;46.84;93332.09;5009157;28;20042;-80
2022/07/04 09:46:28;;;;;;;5.28;3.53;;;;;;;30.35;47.10;93328.25;5009166;28;20054;-81
2022/07/04 09:48:55;;;;;;;12.35;4.80;;;;;;;30.25;48.12;93320.72;5009121;28;20133;-82
2022/07/04 09:51:39;;;;;;;6.90;3.95;;;;;;;29.61;47.12;93323.63;5009448;28;20054;-82
2022/07/04 09:54:18;;;;;;;6.93;5.32;;;;;;;29.84;46.82;93313.41;5002795;28;20065;-81
2022/07/04 09:56:47;;;;;;;6.70;4.00;;;;;;;30.01;48.33;93322.25;4999761;28;20125;-79
2022/07/04 09:59:17;;;;;;;7.38;4.70;;;;;;;29.80;46.96;93328.41;5005330;28;20042;-81
2022/07/04 10:01:48;;;;;;;9.77;5.18;;;;;;;29.34;49.69;93313.28;5008588;28;20042;-80
2022/07/04 10:04:15;;;;;;;8.27;5.57;;;;;;;29.50;48.94;93314.56;5008271;28;20057;-80
2022/07/04 10:06:43;;;;;;;12.23;6.82;;;;;;;29.20;47.65;93331.28;5008110;28;20053;-79
2022/07/04 10:09:12;;;;;;;8.82;5.50;;;;;;;29.34;47.70;93323.06;5008277;28;20128;-79
2022/07/04 10:11:40;;;;;;;9.93;5.43;;;;;;;29.56;48.17;93319.31;5007907;28;20057;-81
2022/07/04 10:14:10;;;;;;;11.15;5.18;;;;;;;29.40;45.84;93295.34;5008652;28;20462;-81
2022/07/04 10:16:38;;;;;;;5.65;4.60;;;;;;;29.67;47.20;93316.25;5007793;28;20049;-81
2022/07/04 10:19:08;;;;;;;6.95;4.90;;;;;;;29.59;46.04;93323.19;5006875;28;20042;-80
2022/07/04 10:21:41;;;;;;;8.25;4.38;;;;;;;29.22;45.59;93315.88;5008872;28;20054;-80
2022/07/04 10:24:09;;;;;;;10.38;5.40;;;;;;;30.07;45.67;93326.22;5006373;28;20065;-81
2022/07/04 10:26:37;;;;;;;8.68;5.20;;;;;;;29.88;45.44;93316.16;5005971;28;20065;-79
2022/07/04 10:29:04;;;;;;;8.27;5.05;;;;;;;29.47;45.94;93295.56;5006684;28;20050;-79
2022/07/04 10:31:35;;;;;;;7.22;5.25;;;;;;;29.08;47.30;93316.16;5010074;28;20050;-80
2022/07/04 10:34:03;;;;;;;7.75;5.53;;;;;;;29.34;47.85;93296.63;5009558;28;20097;-78
2022/07/04 10:36:31;;;;;;;7.05;4.80;;;;;;;29.59;47.60;93312.59;5012861;28;20430;-78
2022/07/04 10:38:59;;;;;;;6.43;4.18;;;;;;;29.12;47.20;93311.00;4998947;28;20078;-79
2022/07/04 10:41:30;;;;;;;9.40;5.05;;;;;;;29.78;47.52;93320.03;5012293;28;20053;-78
2022/07/04 10:44:02;;;;;;;6.03;4.55;;;;;;;29.52;47.69;93310.47;5012521;28;20045;-77
2022/07/04 10:46:36;;;;;;;9.07;5.15;;;;;;;29.47;46.24;93311.44;5012348;28;20413;-78
2022/07/04 10:49:06;;;;;;;8.65;4.75;;;;;;;29.21;46.65;93293.94;5012145;28;20054;-78
2022/07/04 10:51:39;;;;;;;11.75;6.53;;;;;;;29.39;47.09;93298.31;5012235;28;20057;-80
2022/07/04 10:54:08;;;;;;;8.77;5.93;;;;;;;29.40;46.68;93292.69;5012225;28;20124;-78
2022/07/04 10:56:38;;;;;;;9.85;5.90;;;;;;;29.55;47.32;93295.81;5012318;28;20038;-79
2022/07/04 10:59:12;;;;;;;9.48;5.85;;;;;;;29.15;48.38;93295.25;5012006;28;20046;-79
2022/07/04 11:01:45;;;;;;;9.88;4.78;;;;;;;28.99;47.15;93287.16;5012488;28;20058;-84
2022/07/04 11:04:12;;;;;;;5.88;4.40;;;;;;;29.18;47.54;93281.38;5011877;28;20494;-79
2022/07/04 11:06:54;;;;;;;7.70;4.45;;;;;;;29.15;47.33;93281.28;4998427;28;20068;-79
2022/07/04 11:09:22;;;;;;;5.53;4.60;;;;;;;29.64;45.48;93279.84;5012062;28;20073;-77
2022/07/04 11:11:49;;;;;;;6.75;4.88;;;;;;;29.88;46.20;93281.75;5011913;28;20041;-78
2022/07/04 11:14:39;;;;;;;5.90;4.68;;;;;;;29.91;47.38;93273.16;5012238;28;20088;-79
2022/07/04 11:17:09;;;;;;;7.53;4.72;;;;;;;29.82;45.97;93270.63;5011960;28;20054;-79
2022/07/04 11:19:36;;;;;;;7.30;4.80;;;;;;;29.23;46.37;93269.03;5011841;28;20134;-78
2022/07/04 11:22:04;;;;;;;7.75;4.57;;;;;;;29.46;47.10;93269.44;5011495;28;20628;-78
2022/07/04 11:24:32;;;;;;;7.43;4.30;;;;;;;29.69;45.89;93279.63;5011876;28;20050;-79
2022/07/04 11:27:00;;;;;;;8.77;4.53;;;;;;;29.27;46.60;93278.66;5011463;28;20046;-78
2022/07/04 11:29:27;;;;;;;7.70;5.00;;;;;;;29.33;47.64;93285.28;5011847;28;20049;-79
2022/07/04 11:31:54;;;;;;;6.07;5.05;;;;;;;29.11;48.24;93277.72;5011786;28;20045;-79
2022/07/04 11:34:23;;;;;;;5.57;4.28;;;;;;;29.39;48.52;93262.03;5011545;28;20061;-78
2022/07/04 11:36:52;;;;;;;9.77;5.22;;;;;;;29.47;48.56;93281.56;5011713;28;20076;-80
2022/07/04 11:39:20;;;;;;;4.95;4.10;;;;;;;29.49;46.30;93239.72;5011239;28;20490;-81